»·PEaware :: SWA519 KSFO-KLAX

SWA519 :: KSFO-KLAX

FLIGHT INFORMATION

Flight Status: Arrived
Operator:
Southwest Airlines
More flights by this operator :: More flights under this callsign
Pilot: Tim M. (868)
Aircraft: BOEING 737-700
(B737)
More flights by this aircraft type
Origin: KSFO San Francisco Intl
United States
Destination: KLAX Los Angeles Intl
United States
More flights between these airports :: More routes between these airports
Route: SSTIK4 EBAYE BURGL IRNMN2
File this flight plan on PilotEdge
Remarks:
Altitude:
(Current/Filed)
41,000ft
Speed:
(Current/Filed)
443kts
Departed: 18-Jul-20 10:01 AM
Arrived: 18-Jul-20 11:08 AM
Distance/Time
Traveled:
293nm/1:07
Distance/Time
To Go:
Arrived

Flight Plot

Page will automatically refresh every two minutes.

Flight plan parsing failed; only flown route is shown


Map Options




Map Legend


Flown Route
Filed Route
Departure Airport
Arrival Airport
Navaid (VOR, NDB)
Fix

Horizontal Profiles

Position Reports

Time Latitude Longitude Heading Altitude Ground
Speed
18-Jul-20 09:33 37.614034 -122.384632 255 21ft 0kts
18-Jul-20 09:34 37.614034 -122.384632 255 21ft 0kts
18-Jul-20 09:35 37.614034 -122.384632 255 21ft 0kts
18-Jul-20 09:36 37.614034 -122.384632 255 21ft 0kts
18-Jul-20 09:37 37.614034 -122.384632 255 21ft 0kts
18-Jul-20 09:38 37.614034 -122.384632 255 21ft 0kts
18-Jul-20 09:39 37.614034 -122.384632 255 21ft 0kts
18-Jul-20 09:40 37.614034 -122.384632 255 21ft 0kts
18-Jul-20 09:41 37.614034 -122.384632 255 21ft 0kts
18-Jul-20 09:42 37.614034 -122.384632 255 21ft 0kts
18-Jul-20 09:43 37.614034 -122.384632 255 21ft 0kts
18-Jul-20 09:44 37.614034 -122.384632 255 21ft 0kts
18-Jul-20 09:45 37.614034 -122.384632 255 21ft 0kts
18-Jul-20 09:46 37.614034 -122.384632 255 21ft 0kts
18-Jul-20 09:47 37.614034 -122.384632 255 21ft 0kts
18-Jul-20 09:48 37.614034 -122.384632 255 21ft 0kts
18-Jul-20 09:49 37.614034 -122.384632 255 21ft 0kts
18-Jul-20 09:50 37.614034 -122.384632 255 21ft 0kts
18-Jul-20 09:51 37.614034 -122.384632 255 21ft 0kts
18-Jul-20 09:52 37.614034 -122.384632 255 21ft 0kts
18-Jul-20 09:53 37.614139 -122.384129 250 21ft 2kts
18-Jul-20 09:54 37.614489 -122.383919 183 21ft 0kts
18-Jul-20 09:55 37.614489 -122.383919 183 21ft 0kts
18-Jul-20 09:56 37.614150 -122.383882 157 21ft 12kts
18-Jul-20 09:57 37.612112 -122.382631 207 21ft 11kts
18-Jul-20 09:58 37.610058 -122.384105 213 21ft 3kts
18-Jul-20 09:59 37.609091 -122.382841 118 21ft 12kts
18-Jul-20 10:00 37.621182 -122.374057 30 56ft 134kts
18-Jul-20 10:01 37.656604 -122.359098 357 2170ft 152kts
18-Jul-20 10:02 37.698278 -122.379246 293 3864ft 205kts
18-Jul-20 10:03 37.656880 -122.422000 183 5590ft 266kts
18-Jul-20 10:04 37.581995 -122.440379 196 8938ft 283kts
18-Jul-20 10:05 37.503601 -122.468198 186 10935ft 316kts
18-Jul-20 10:06 37.430721 -122.409323 127 14158ft 340kts
18-Jul-20 10:07 37.369754 -122.314315 132 17524ft 358kts
18-Jul-20 10:08 37.301114 -122.219656 132 20787ft 374kts
18-Jul-20 10:09 37.228811 -122.121342 131 23660ft 390kts
18-Jul-20 10:10 37.153820 -122.019753 131 26230ft 403kts
18-Jul-20 10:11 37.076017 -121.915154 131 28358ft 417kts
18-Jul-20 10:12 36.995619 -121.807514 131 30249ft 429kts
18-Jul-20 10:13 36.912536 -121.696659 132 31777ft 442kts
18-Jul-20 10:14 36.827805 -121.583998 132 33421ft 445kts
18-Jul-20 10:15 36.743739 -121.472597 133 35307ft 439kts
18-Jul-20 10:16 36.663235 -121.366276 133 36726ft 438kts
18-Jul-20 10:17 36.579796 -121.255997 134 38068ft 436kts
18-Jul-20 10:18 36.496208 -121.146611 134 39243ft 435kts
18-Jul-20 10:19 36.413444 -121.037559 132 40287ft 434kts
18-Jul-20 10:20 36.334661 -120.923401 131 41057ft 436kts
18-Jul-20 10:21 36.255376 -120.809918 132 41066ft 434kts
18-Jul-20 10:22 36.181910 -120.704732 131 41062ft 434kts
18-Jul-20 10:23 36.103159 -120.592255 132 41065ft 434kts
18-Jul-20 10:24 36.029869 -120.487735 132 41064ft 434kts
18-Jul-20 10:25 35.950389 -120.375559 132 41056ft 434kts
18-Jul-20 10:26 35.868387 -120.266445 141 41056ft 432kts
18-Jul-20 10:27 35.768230 -120.184778 149 41056ft 431kts
18-Jul-20 10:28 35.665818 -120.107873 149 41063ft 431kts
18-Jul-20 10:29 35.563578 -120.030750 149 41071ft 431kts
18-Jul-20 10:30 35.461437 -119.953530 149 41068ft 431kts
18-Jul-20 10:31 35.359035 -119.876769 149 41079ft 432kts
18-Jul-20 10:32 35.257630 -119.796547 144 38956ft 435kts
18-Jul-20 10:33 35.166262 -119.709916 143 36348ft 437kts
18-Jul-20 10:34 35.069116 -119.618922 143 33313ft 442kts
18-Jul-20 10:35 34.971682 -119.528581 143 30558ft 434kts
18-Jul-20 10:36 34.876742 -119.441565 144 28356ft 417kts
18-Jul-20 10:37 34.790606 -119.364736 144 26718ft 414kts
18-Jul-20 10:38 34.699124 -119.283960 144 25033ft 401kts
18-Jul-20 10:39 34.615867 -119.211610 145 23344ft 393kts
18-Jul-20 10:40 34.534767 -119.141095 143 21496ft 385kts
18-Jul-20 10:41 34.449601 -119.065709 143 19540ft 371kts
18-Jul-20 10:42 34.368841 -118.995600 144 17632ft 357kts
18-Jul-20 10:43 34.295787 -118.930440 143 15952ft 348kts
18-Jul-20 10:44 34.219937 -118.861160 143 14233ft 330kts
18-Jul-20 10:45 34.151638 -118.797274 138 12718ft 300kts
18-Jul-20 10:46 34.092839 -118.732255 138 11437ft 295kts
18-Jul-20 10:47 34.038781 -118.671909 128 10250ft 286kts
18-Jul-20 10:48 34.021415 -118.581183 96 8983ft 280kts
18-Jul-20 10:49 34.014590 -118.503207 97 7944ft 264kts
18-Jul-20 10:50 34.016455 -118.418090 78 6803ft 245kts
18-Jul-20 10:51 34.029842 -118.339665 82 5987ft 237kts
18-Jul-20 10:52 34.036644 -118.260712 83 5977ft 232kts
18-Jul-20 10:53 34.044374 -118.186612 83 5978ft 219kts
18-Jul-20 10:54 34.051821 -118.115364 83 5986ft 219kts
18-Jul-20 10:55 34.059562 -118.041451 83 5990ft 219kts
18-Jul-20 10:56 34.041900 -117.979374 156 5960ft 216kts
18-Jul-20 10:57 33.982932 -117.966693 178 5993ft 215kts
18-Jul-20 10:58 33.960076 -118.020132 279 6007ft 199kts
18-Jul-20 10:59 33.973077 -118.082283 286 5214ft 186kts
18-Jul-20 11:00 33.982259 -118.138736 265 4336ft 164kts
18-Jul-20 11:01 33.974440 -118.189741 260 3513ft 148kts
18-Jul-20 11:02 33.968881 -118.236577 262 2788ft 136kts
18-Jul-20 11:03 33.964211 -118.281160 262 2081ft 131kts
18-Jul-20 11:04 33.960060 -118.324278 262 1391ft 126kts
18-Jul-20 11:05 33.956093 -118.365629 261 723ft 120kts
18-Jul-20 11:06 33.951867 -118.404834 261 160ft 114kts
18-Jul-20 11:07 33.949682 -118.424759 247 134ft 22kts
18-Jul-20 11:09 33.948381 -118.427062 223 134ft 13kts
18-Jul-20 11:10 33.946436 -118.427728 122 134ft 0kts
18-Jul-20 11:11 33.946724 -118.423549 81 134ft 21kts
18-Jul-20 11:12 33.947359 -118.417127 83 134ft 19kts
18-Jul-20 11:13 33.948121 -118.411105 83 134ft 16kts
18-Jul-20 11:14 33.948610 -118.406262 83 134ft 13kts
18-Jul-20 11:15 33.948256 -118.402905 163 134ft 9kts
18-Jul-20 11:16 33.947044 -118.402052 92 134ft 2kts
18-Jul-20 11:17 33.947037 -118.401919 93 134ft 0kts
18-Jul-20 11:18 33.947037 -118.401917 93 134ft 0kts
18-Jul-20 11:19 33.947037 -118.401916 93 134ft 0kts
18-Jul-20 11:20 33.947037 -118.401916 93 134ft 0kts

Navigation Log

Ident Type
Flight plan parsing failed, navigation log unavailable